sensor_id;sensor_type;location;lat;lon;timestamp;P1;durP1;ratioP1;P2;durP2;ratioP2
37877;SDS011;23715;53.652;8.516;2023-10-08T00:23:53;67.70;;;64.58;;
37877;SDS011;23715;53.652;8.516;2023-10-08T00:28:56;74.07;;;70.67;;
37877;SDS011;23715;53.652;8.516;2023-10-08T00:34:07;77.55;;;73.97;;
37877;SDS011;23715;53.652;8.516;2023-10-08T00:39:10;79.15;;;75.55;;
37877;SDS011;23715;53.652;8.516;2023-10-08T00:49:24;84.15;;;80.25;;
37877;SDS011;23715;53.652;8.516;2023-10-08T00:54:43;80.90;;;77.17;;
37877;SDS011;23715;53.652;8.516;2023-10-08T01:00:04;80.53;;;76.82;;
37877;SDS011;23715;53.652;8.516;2023-10-08T01:05:14;78.22;;;74.62;;
37877;SDS011;23715;53.652;8.516;2023-10-08T01:10:22;75.60;;;72.10;;
37877;SDS011;23715;53.652;8.516;2023-10-08T01:15:47;66.95;;;63.85;;
37877;SDS011;23715;53.652;8.516;2023-10-08T01:20:56;73.55;;;69.55;;
37877;SDS011;23715;53.652;8.516;2023-10-08T01:31:29;64.80;;;61.80;;
37877;SDS011;23715;53.652;8.516;2023-10-08T01:36:44;54.18;;;51.68;;
37877;SDS011;23715;53.652;8.516;2023-10-08T01:41:51;50.80;;;48.50;;
37877;SDS011;23715;53.652;8.516;2023-10-08T01:47:06;52.08;;;49.67;;
37877;SDS011;23715;53.652;8.516;2023-10-08T01:52:20;59.05;;;56.35;;
37877;SDS011;23715;53.652;8.516;2023-10-08T01:57:37;58.13;;;55.43;;
37877;SDS011;23715;53.652;8.516;2023-10-08T02:02:54;53.78;;;51.28;;
37877;SDS011;23715;53.652;8.516;2023-10-08T02:08:03;48.85;;;46.65;;
37877;SDS011;23715;53.652;8.516;2023-10-08T02:13:15;45.40;;;43.30;;
37877;SDS011;23715;53.652;8.516;2023-10-08T02:18:45;43.60;;;41.60;;
37877;SDS011;23715;53.652;8.516;2023-10-08T02:24:13;40.90;;;39.00;;
37877;SDS011;23715;53.652;8.516;2023-10-08T02:29:23;41.95;;;40.05;;
37877;SDS011;23715;53.652;8.516;2023-10-08T02:34:26;36.55;;;34.85;;
37877;SDS011;23715;53.652;8.516;2023-10-08T02:39:29;32.20;;;30.72;;
37877;SDS011;23715;53.652;8.516;2023-10-08T02:44:35;29.85;;;28.50;;
37877;SDS011;23715;53.652;8.516;2023-10-08T02:49:44;28.38;;;27.07;;
37877;SDS011;23715;53.652;8.516;2023-10-08T02:54:49;33.40;;;31.90;;
37877;SDS011;23715;53.652;8.516;2023-10-08T02:59:57;28.25;;;26.95;;
37877;SDS011;23715;53.652;8.516;2023-10-08T03:04:58;25.35;;;24.25;;
37877;SDS011;23715;53.652;8.516;2023-10-08T03:10:01;24.47;;;23.38;;
37877;SDS011;23715;53.652;8.516;2023-10-08T03:15:14;27.85;;;26.60;;
37877;SDS011;23715;53.652;8.516;2023-10-08T03:20:21;27.65;;;26.40;;
37877;SDS011;23715;53.652;8.516;2023-10-08T03:25:38;25.25;;;24.12;;
37877;SDS011;23715;53.652;8.516;2023-10-08T03:30:48;28.23;;;26.93;;
37877;SDS011;23715;53.652;8.516;2023-10-08T03:35:55;25.85;;;24.65;;
37877;SDS011;23715;53.652;8.516;2023-10-08T03:41:04;24.50;;;23.40;;
37877;SDS011;23715;53.652;8.516;2023-10-08T03:46:28;29.18;;;27.87;;
37877;SDS011;23715;53.652;8.516;2023-10-08T03:51:33;27.77;;;26.48;;
37877;SDS011;23715;53.652;8.516;2023-10-08T03:56:35;29.10;;;27.80;;
37877;SDS011;23715;53.652;8.516;2023-10-08T04:02:34;31.93;;;30.43;;
37877;SDS011;23715;53.652;8.516;2023-10-08T04:08:05;28.03;;;26.77;;
37877;SDS011;23715;53.652;8.516;2023-10-08T04:13:47;28.45;;;27.15;;
37877;SDS011;23715;53.652;8.516;2023-10-08T04:19:23;25.25;;;24.15;;
37877;SDS011;23715;53.652;8.516;2023-10-08T04:24:56;27.22;;;26.02;;
37877;SDS011;23715;53.652;8.516;2023-10-08T04:30:09;25.05;;;23.95;;
37877;SDS011;23715;53.652;8.516;2023-10-08T04:41:02;26.75;;;25.55;;
37877;SDS011;23715;53.652;8.516;2023-10-08T04:46:04;26.10;;;24.90;;
37877;SDS011;23715;53.652;8.516;2023-10-08T04:51:06;24.00;;;22.90;;
37877;SDS011;23715;53.652;8.516;2023-10-08T04:56:08;24.47;;;23.38;;
37877;SDS011;23715;53.652;8.516;2023-10-08T05:01:15;21.60;;;20.60;;
37877;SDS011;23715;53.652;8.516;2023-10-08T05:16:34;17.20;;;16.40;;
37877;SDS011;23715;53.652;8.516;2023-10-08T05:21:36;16.30;;;15.60;;
37877;SDS011;23715;53.652;8.516;2023-10-08T05:26:38;15.63;;;14.93;;
37877;SDS011;23715;53.652;8.516;2023-10-08T05:31:43;16.60;;;15.90;;
37877;SDS011;23715;53.652;8.516;2023-10-08T05:36:45;16.62;;;15.93;;
37877;SDS011;23715;53.652;8.516;2023-10-08T05:42:12;17.85;;;17.05;;
37877;SDS011;23715;53.652;8.516;2023-10-08T05:47:17;17.77;;;16.97;;
37877;SDS011;23715;53.652;8.516;2023-10-08T05:52:31;23.00;;;21.57;;
37877;SDS011;23715;53.652;8.516;2023-10-08T05:57:34;20.12;;;19.23;;
37877;SDS011;23715;53.652;8.516;2023-10-08T06:02:42;19.95;;;19.05;;
37877;SDS011;23715;53.652;8.516;2023-10-08T06:07:45;21.77;;;20.77;;
37877;SDS011;23715;53.652;8.516;2023-10-08T06:12:49;23.70;;;22.60;;
37877;SDS011;23715;53.652;8.516;2023-10-08T06:17:51;24.75;;;23.65;;
37877;SDS011;23715;53.652;8.516;2023-10-08T06:22:58;25.87;;;24.67;;
37877;SDS011;23715;53.652;8.516;2023-10-08T06:33:11;27.62;;;26.33;;
37877;SDS011;23715;53.652;8.516;2023-10-08T06:38:13;24.45;;;23.35;;
37877;SDS011;23715;53.652;8.516;2023-10-08T06:43:15;24.65;;;23.55;;
37877;SDS011;23715;53.652;8.516;2023-10-08T06:48:19;21.00;;;20.10;;
37877;SDS011;23715;53.652;8.516;2023-10-08T06:53:22;23.70;;;22.60;;
37877;SDS011;23715;53.652;8.516;2023-10-08T06:58:31;23.60;;;22.50;;
37877;SDS011;23715;53.652;8.516;2023-10-08T07:03:32;22.48;;;21.48;;
37877;SDS011;23715;53.652;8.516;2023-10-08T07:08:34;22.25;;;21.25;;
37877;SDS011;23715;53.652;8.516;2023-10-08T07:13:37;23.00;;;22.00;;
37877;SDS011;23715;53.652;8.516;2023-10-08T07:18:41;20.23;;;19.32;;
37877;SDS011;23715;53.652;8.516;2023-10-08T07:23:43;20.27;;;19.37;;
37877;SDS011;23715;53.652;8.516;2023-10-08T07:28:58;21.27;;;20.27;;
37877;SDS011;23715;53.652;8.516;2023-10-08T07:33:58;21.97;;;20.97;;
37877;SDS011;23715;53.652;8.516;2023-10-08T07:39:00;21.68;;;20.68;;
37877;SDS011;23715;53.652;8.516;2023-10-08T07:44:08;21.50;;;20.50;;
37877;SDS011;23715;53.652;8.516;2023-10-08T07:49:12;20.60;;;19.70;;
37877;SDS011;23715;53.652;8.516;2023-10-08T07:54:13;21.42;;;20.43;;
37877;SDS011;23715;53.652;8.516;2023-10-08T07:59:19;21.10;;;20.10;;
37877;SDS011;23715;53.652;8.516;2023-10-08T08:04:21;20.10;;;19.20;;
37877;SDS011;23715;53.652;8.516;2023-10-08T08:09:24;21.10;;;20.10;;
37877;SDS011;23715;53.652;8.516;2023-10-08T08:14:26;20.27;;;19.37;;
37877;SDS011;23715;53.652;8.516;2023-10-08T08:19:27;19.65;;;18.75;;
37877;SDS011;23715;53.652;8.516;2023-10-08T08:24:29;18.10;;;17.30;;
37877;SDS011;23715;53.652;8.516;2023-10-08T08:29:31;17.65;;;16.85;;
37877;SDS011;23715;53.652;8.516;2023-10-08T08:34:36;18.25;;;17.45;;
37877;SDS011;23715;53.652;8.516;2023-10-08T08:39:38;15.90;;;15.20;;
37877;SDS011;23715;53.652;8.516;2023-10-08T08:44:45;15.32;;;14.63;;
37877;SDS011;23715;53.652;8.516;2023-10-08T08:50:02;12.43;;;11.93;;
37877;SDS011;23715;53.652;8.516;2023-10-08T09:06:10;11.33;;;10.82;;
37877;SDS011;23715;53.652;8.516;2023-10-08T09:11:14;12.20;;;11.70;;
37877;SDS011;23715;53.652;8.516;2023-10-08T09:16:15;12.10;;;11.60;;
37877;SDS011;23715;53.652;8.516;2023-10-08T09:26:22;11.00;;;10.50;;
37877;SDS011;23715;53.652;8.516;2023-10-08T09:31:26;10.93;;;10.43;;
37877;SDS011;23715;53.652;8.516;2023-10-08T09:36:33;10.28;;;9.88;;
37877;SDS011;23715;53.652;8.516;2023-10-08T09:41:38;9.58;;;9.18;;
37877;SDS011;23715;53.652;8.516;2023-10-08T09:53:03;10.32;;;9.93;;
37877;SDS011;23715;53.652;8.516;2023-10-08T09:58:10;9.40;;;9.00;;
37877;SDS011;23715;53.652;8.516;2023-10-08T10:03:15;10.80;;;10.30;;
37877;SDS011;23715;53.652;8.516;2023-10-08T10:41:50;9.80;;;9.40;;
37877;SDS011;23715;53.652;8.516;2023-10-08T11:13:39;11.33;;;10.82;;
37877;SDS011;23715;53.652;8.516;2023-10-08T11:18:49;11.45;;;10.95;;
37877;SDS011;23715;53.652;8.516;2023-10-08T11:24:28;11.30;;;10.80;;
37877;SDS011;23715;53.652;8.516;2023-10-08T11:29:38;11.33;;;10.82;;
37877;SDS011;23715;53.652;8.516;2023-10-08T11:40:06;11.85;;;11.35;;
37877;SDS011;23715;53.652;8.516;2023-10-08T11:45:11;10.60;;;10.10;;
37877;SDS011;23715;53.652;8.516;2023-10-08T11:50:27;10.72;;;10.23;;
37877;SDS011;23715;53.652;8.516;2023-10-08T11:55:37;9.95;;;9.55;;
37877;SDS011;23715;53.652;8.516;2023-10-08T12:00:42;10.40;;;9.90;;
37877;SDS011;23715;53.652;8.516;2023-10-08T12:05:53;9.70;;;9.30;;
37877;SDS011;23715;53.652;8.516;2023-10-08T12:11:02;8.58;;;8.18;;
37877;SDS011;23715;53.652;8.516;2023-10-08T12:16:27;9.48;;;9.08;;
37877;SDS011;23715;53.652;8.516;2023-10-08T12:21:38;9.38;;;8.98;;
37877;SDS011;23715;53.652;8.516;2023-10-08T12:32:25;9.30;;;8.90;;
37877;SDS011;23715;53.652;8.516;2023-10-08T13:03:52;9.43;;;9.03;;
37877;SDS011;23715;53.652;8.516;2023-10-08T13:09:05;9.85;;;9.45;;
37877;SDS011;23715;53.652;8.516;2023-10-08T13:51:27;9.85;;;9.45;;
37877;SDS011;23715;53.652;8.516;2023-10-08T13:56:33;9.80;;;9.40;;
37877;SDS011;23715;53.652;8.516;2023-10-08T14:01:52;9.48;;;9.08;;
37877;SDS011;23715;53.652;8.516;2023-10-08T14:17:49;10.08;;;9.68;;
37877;SDS011;23715;53.652;8.516;2023-10-08T14:22:52;9.80;;;9.40;;
37877;SDS011;23715;53.652;8.516;2023-10-08T14:28:04;9.80;;;9.40;;
37877;SDS011;23715;53.652;8.516;2023-10-08T14:33:11;9.70;;;9.30;;
37877;SDS011;23715;53.652;8.516;2023-10-08T14:38:11;10.23;;;9.83;;
37877;SDS011;23715;53.652;8.516;2023-10-08T14:43:33;9.90;;;9.50;;
37877;SDS011;23715;53.652;8.516;2023-10-08T14:48:35;8.78;;;8.38;;
37877;SDS011;23715;53.652;8.516;2023-10-08T14:53:43;9.78;;;9.38;;
37877;SDS011;23715;53.652;8.516;2023-10-08T14:58:48;9.38;;;8.98;;
37877;SDS011;23715;53.652;8.516;2023-10-08T15:03:47;9.20;;;8.80;;
37877;SDS011;23715;53.652;8.516;2023-10-08T15:08:48;8.90;;;8.50;;
37877;SDS011;23715;53.652;8.516;2023-10-08T15:18:54;10.53;;;10.03;;
37877;SDS011;23715;53.652;8.516;2023-10-08T15:23:56;9.05;;;8.65;;
37877;SDS011;23715;53.652;8.516;2023-10-08T15:29:11;9.05;;;8.65;;
37877;SDS011;23715;53.652;8.516;2023-10-08T15:39:44;8.33;;;8.00;;
37877;SDS011;23715;53.652;8.516;2023-10-08T15:44:28;6.53;;;6.22;;
37877;SDS011;23715;53.652;8.516;2023-10-08T15:49:36;6.60;;;6.30;;
37877;SDS011;23715;53.652;8.516;2023-10-08T15:54:37;7.72;;;7.42;;
37877;SDS011;23715;53.652;8.516;2023-10-08T15:59:39;6.10;;;5.90;;
37877;SDS011;23715;53.652;8.516;2023-10-08T16:04:39;9.05;;;8.55;;
37877;SDS011;23715;53.652;8.516;2023-10-08T16:19:55;8.08;;;7.67;;
37877;SDS011;23715;53.652;8.516;2023-10-08T16:24:55;7.03;;;6.72;;
37877;SDS011;23715;53.652;8.516;2023-10-08T16:29:56;7.05;;;6.75;;
37877;SDS011;23715;53.652;8.516;2023-10-08T16:34:56;6.00;;;5.80;;
37877;SDS011;23715;53.652;8.516;2023-10-08T16:39:56;5.03;;;4.83;;
37877;SDS011;23715;53.652;8.516;2023-10-08T16:44:57;4.90;;;4.70;;
37877;SDS011;23715;53.652;8.516;2023-10-08T16:49:57;5.67;;;5.47;;
37877;SDS011;23715;53.652;8.516;2023-10-08T16:55:01;6.53;;;6.22;;
37877;SDS011;23715;53.652;8.516;2023-10-08T17:00:01;6.62;;;6.33;;
37877;SDS011;23715;53.652;8.516;2023-10-08T17:05:06;8.68;;;8.28;;
37877;SDS011;23715;53.652;8.516;2023-10-08T17:10:09;10.10;;;9.70;;
37877;SDS011;23715;53.652;8.516;2023-10-08T17:15:09;12.85;;;12.25;;
37877;SDS011;23715;53.652;8.516;2023-10-08T17:20:11;13.58;;;12.98;;
37877;SDS011;23715;53.652;8.516;2023-10-08T17:25:13;13.05;;;12.45;;
37877;SDS011;23715;53.652;8.516;2023-10-08T17:30:14;9.80;;;9.35;;
37877;SDS011;23715;53.652;8.516;2023-10-08T17:35:19;8.30;;;8.00;;
37877;SDS011;23715;53.652;8.516;2023-10-08T17:40:20;9.90;;;9.50;;
37877;SDS011;23715;53.652;8.516;2023-10-08T17:45:22;7.08;;;6.78;;
37877;SDS011;23715;53.652;8.516;2023-10-08T17:50:22;5.83;;;5.62;;
37877;SDS011;23715;53.652;8.516;2023-10-08T17:55:25;7.45;;;7.15;;
37877;SDS011;23715;53.652;8.516;2023-10-08T18:00:25;7.33;;;7.03;;
37877;SDS011;23715;53.652;8.516;2023-10-08T18:05:26;8.00;;;7.70;;
37877;SDS011;23715;53.652;8.516;2023-10-08T18:10:29;6.40;;;6.10;;
37877;SDS011;23715;53.652;8.516;2023-10-08T18:15:31;6.60;;;6.30;;
37877;SDS011;23715;53.652;8.516;2023-10-08T18:20:34;5.95;;;5.75;;
37877;SDS011;23715;53.652;8.516;2023-10-08T18:25:35;7.37;;;7.08;;
37877;SDS011;23715;53.652;8.516;2023-10-08T18:30:36;8.03;;;7.72;;
37877;SDS011;23715;53.652;8.516;2023-10-08T18:35:38;7.77;;;7.47;;
37877;SDS011;23715;53.652;8.516;2023-10-08T18:40:50;8.00;;;7.70;;
37877;SDS011;23715;53.652;8.516;2023-10-08T18:45:52;8.03;;;7.65;;
37877;SDS011;23715;53.652;8.516;2023-10-08T18:56:12;7.60;;;7.30;;
37877;SDS011;23715;53.652;8.516;2023-10-08T19:01:16;7.60;;;7.30;;
37877;SDS011;23715;53.652;8.516;2023-10-08T19:06:22;7.28;;;6.97;;
37877;SDS011;23715;53.652;8.516;2023-10-08T19:11:28;6.97;;;6.67;;
37877;SDS011;23715;53.652;8.516;2023-10-08T19:16:30;7.20;;;6.90;;
37877;SDS011;23715;53.652;8.516;2023-10-08T19:21:30;6.90;;;6.60;;
37877;SDS011;23715;53.652;8.516;2023-10-08T19:26:38;7.75;;;7.45;;
37877;SDS011;23715;53.652;8.516;2023-10-08T19:31:40;6.40;;;6.10;;
37877;SDS011;23715;53.652;8.516;2023-10-08T19:36:49;7.25;;;6.95;;
37877;SDS011;23715;53.652;8.516;2023-10-08T19:41:49;6.70;;;6.40;;
37877;SDS011;23715;53.652;8.516;2023-10-08T19:46:50;7.20;;;6.90;;
37877;SDS011;23715;53.652;8.516;2023-10-08T19:57:04;6.37;;;6.08;;
37877;SDS011;23715;53.652;8.516;2023-10-08T20:02:06;6.50;;;6.20;;
37877;SDS011;23715;53.652;8.516;2023-10-08T20:12:12;6.53;;;6.22;;
37877;SDS011;23715;53.652;8.516;2023-10-08T20:17:08;6.50;;;6.20;;
37877;SDS011;23715;53.652;8.516;2023-10-08T20:22:08;7.00;;;6.70;;
37877;SDS011;23715;53.652;8.516;2023-10-08T20:32:30;6.85;;;6.55;;
37877;SDS011;23715;53.652;8.516;2023-10-08T20:37:59;6.70;;;6.40;;
37877;SDS011;23715;53.652;8.516;2023-10-08T20:53:45;6.80;;;6.50;;
37877;SDS011;23715;53.652;8.516;2023-10-08T21:09:38;9.10;;;8.70;;
37877;SDS011;23715;53.652;8.516;2023-10-08T21:14:47;10.90;;;10.40;;
37877;SDS011;23715;53.652;8.516;2023-10-08T21:25:09;13.15;;;12.55;;
37877;SDS011;23715;53.652;8.516;2023-10-08T21:30:24;13.80;;;13.20;;
37877;SDS011;23715;53.652;8.516;2023-10-08T21:41:02;15.72;;;15.03;;
37877;SDS011;23715;53.652;8.516;2023-10-08T21:51:54;16.30;;;15.60;;
37877;SDS011;23715;53.652;8.516;2023-10-08T21:57:00;16.82;;;16.12;;
37877;SDS011;23715;53.652;8.516;2023-10-08T22:07:56;18.57;;;17.77;;
37877;SDS011;23715;53.652;8.516;2023-10-08T22:13:08;19.35;;;18.45;;
37877;SDS011;23715;53.652;8.516;2023-10-08T22:18:25;18.42;;;17.62;;
37877;SDS011;23715;53.652;8.516;2023-10-08T22:23:31;20.65;;;19.75;;
37877;SDS011;23715;53.652;8.516;2023-10-08T22:28:36;22.32;;;21.33;;
37877;SDS011;23715;53.652;8.516;2023-10-08T22:33:43;24.27;;;23.18;;
37877;SDS011;23715;53.652;8.516;2023-10-08T22:38:43;23.87;;;22.77;;
37877;SDS011;23715;53.652;8.516;2023-10-08T22:43:45;24.82;;;23.73;;
37877;SDS011;23715;53.652;8.516;2023-10-08T22:48:49;27.13;;;25.92;;
37877;SDS011;23715;53.652;8.516;2023-10-08T22:53:49;24.92;;;23.83;;
37877;SDS011;23715;53.652;8.516;2023-10-08T22:58:50;25.00;;;23.90;;
37877;SDS011;23715;53.652;8.516;2023-10-08T23:08:58;30.82;;;29.42;;
37877;SDS011;23715;53.652;8.516;2023-10-08T23:13:57;33.53;;;32.03;;
37877;SDS011;23715;53.652;8.516;2023-10-08T23:19:00;33.33;;;31.82;;
37877;SDS011;23715;53.652;8.516;2023-10-08T23:24:02;38.95;;;37.15;;
37877;SDS011;23715;53.652;8.516;2023-10-08T23:29:10;36.40;;;34.78;;
37877;SDS011;23715;53.652;8.516;2023-10-08T23:34:12;38.20;;;36.45;;
37877;SDS011;23715;53.652;8.516;2023-10-08T23:39:13;38.13;;;36.33;;
37877;SDS011;23715;53.652;8.516;2023-10-08T23:44:17;39.13;;;37.30;;
37877;SDS011;23715;53.652;8.516;2023-10-08T23:49:27;40.55;;;38.65;;
37877;SDS011;23715;53.652;8.516;2023-10-08T23:54:28;39.78;;;37.98;;
37877;SDS011;23715;53.652;8.516;2023-10-08T23:59:34;37.95;;;36.25;;
